Norris, MT (59745)

11:42 PM MST on March 05, 2015 (GMT -0700)
McAllister Station | Change Station
CLOSE
Current Station
Personal Weather Station
Location: McAllister, MT
Elevation: 4915 ft
Nearby Weather Stations

Elev 4915 ft 45.42 °N, 111.73 °W | Updated 53 minutes ago

Partly Cloudy
Partly Cloudy
43.3 °F
Feels Like 37 °F
N
12.2
Wind Variable Wind from South
Gusts 15.4 mph

Today
High -- | Low -- °F
--% Chance of Precip.
Yesterday
High -- | Low -- °F
Precip. -- in
6:58 AM 6:19 PM
Full, 100% visible
Pressure 30.35 in
Visibility 10.0 miles
Clouds Clear
Windchill 37 °F
Dew Point 20 °F
Humidity 40%
Rainfall in
Snow Depth Not available.
UV 0 out of 12
Pollen .40 out of 12
Air Quality Not available.
Flu Activity Not available.
METAR KBZN 060556Z 12005KT 10SM CLR M03/M07 A3025 RMK AO2 SLP277 T10281067 10078 21028 53006

More Conditions Fewer Conditions

Pressure 30.35 in
Visibility 10.0 miles
Clouds Clear
Windchill 37 °F
Dew Point 20 °F
Humidity 40%
Rainfall in
Snow Depth Not available.
UV 0 out of 12
Pollen .40 out of 12
Air Quality Not available.
Flu Activity Not available.
METAR KBZN 060556Z 12005KT 10SM CLR M03/M07 A3025 RMK AO2 SLP277 T10281067 10078 21028 53006

More Conditions Fewer Conditions

10-Day Weather Forecast

Almanac

Astronomy

Mar. 05, 2015 Rise Set
Actual Time
Civil Twilight
Nautical Twilight
Astronomical Twilight
Moon
Length of Visible Light
Length of Day
Tomorrow will be .
, % of the Moon is Illuminated

Today's Extremes

State Highs State Lows

Community

WunderPhotos

Upload Photos

1,803,197 photos uploaded!

WunderBlogs® & News

Nearby

Air Quality

  Air Quality AQ Index Pollutant
Not available.

Snow Depth

Station Depth Elevation

Earthquake Activity

City Distance Mag. Time & Date
Minimum magnitude displayed is 2.5.

Coastal Water Temperatures

Place Temperature

Nearby Weather Stations